This is the latest recevied weather packets stored in our database for station/object DL1MMS-10. If no packets are shown the sender has not sent any weather packets the latest 10 day(s).
| Time | Temp. | Humidity | Pressure | Rain* | Wind** | Luminosity | Snow |
|---|---|---|---|---|---|---|---|
| 1777908404 | 24.44° C | 36% | 1012.7 hPa | 0 mm | - | - | - |
| 1777908104 | 24.44° C | 35% | 1012.8 hPa | 0 mm | - | - | - |
| 1777907804 | 25° C | 33% | 1012.7 hPa | 0 mm | - | - | - |
| 1777907503 | 25.56° C | 32% | 1012.9 hPa | 0 mm | - | - | - |
| 1777907203 | 26.11° C | 31% | 1012.9 hPa | 0 mm | - | - | - |
| 1777906903 | 26.11° C | 31% | 1012.7 hPa | 0 mm | - | - | - |
| 1777906602 | 26.67° C | 31% | 1012.8 hPa | 0 mm | - | - | - |
| 1777906302 | 27.22° C | 30% | 1012.8 hPa | 0 mm | - | - | - |
| 1777906002 | 27.78° C | 29% | 1012.8 hPa | 0 mm | - | - | - |
| 1777905701 | 28.89° C | 29% | 1013 hPa | 0 mm | - | - | - |
| 1777905401 | 28.89° C | 30% | 1012.9 hPa | 0 mm | - | - | - |
| 1777905101 | 28.89° C | 29% | 1012.8 hPa | 0 mm | - | - | - |
| 1777904801 | 30° C | 28% | 1012.8 hPa | 0 mm | - | - | - |
| 1777904500 | 30.56° C | 26% | 1013 hPa | 0 mm | - | - | - |
| 1777904200 | 32.78° C | 25% | 1012.9 hPa | 0 mm | - | - | - |
| 1777903900 | 33.89° C | 25% | 1012.9 hPa | 0 mm | - | - | - |
| 1777903599 | 33.33° C | 26% | 1013.1 hPa | 0 mm | - | - | - |
| 1777903299 | 32.78° C | 28% | 1013.2 hPa | 0 mm | - | - | - |
| 1777902999 | 31.11° C | 29% | 1013.3 hPa | 0 mm | - | - | - |
| 1777902699 | 28.89° C | 30% | 1013.2 hPa | 0 mm | - | - | - |
| 1777902398 | 27.78° C | 33% | 1013.2 hPa | 0 mm | - | - | - |
| 1777902098 | 26.67° C | 34% | 1013.1 hPa | 0 mm | - | - | - |
| 1777901798 | 26.67° C | 34% | 1013.3 hPa | 0 mm | - | - | - |
| 1777901497 | 26.67° C | 32% | 1013.2 hPa | 0 mm | - | - | - |
| 1777901197 | 27.22° C | 32% | 1013.3 hPa | 0 mm | - | - | - |
* Rain latest hour (hover to see other rain measurements)
** Current wind speed in m/s (hover to see current wind gust speed)